sensor_id;sensor_type;location;lat;lon;timestamp;pressure;altitude;pressure_sealevel;temperature;humidity
40490;BME280;26196;52.302;10.572;2023-10-19T00:00:33;99202.47;;;11.31;54.29
40490;BME280;26196;52.302;10.572;2023-10-19T00:04:34;99199.63;;;11.35;54.45
40490;BME280;26196;52.302;10.572;2023-10-19T00:08:36;99185.41;;;11.24;54.79
40490;BME280;26196;52.302;10.572;2023-10-19T00:12:42;99185.06;;;11.30;54.77
40490;BME280;26196;52.302;10.572;2023-10-19T00:16:44;99174.59;;;11.30;54.99
40490;BME280;26196;52.302;10.572;2023-10-19T00:20:51;99161.81;;;11.24;55.33
40490;BME280;26196;52.302;10.572;2023-10-19T00:25:14;99165.28;;;11.24;55.39
40490;BME280;26196;52.302;10.572;2023-10-19T00:29:15;99174.75;;;11.27;55.30
40490;BME280;26196;52.302;10.572;2023-10-19T00:33:30;99167.06;;;11.24;55.44
40490;BME280;26196;52.302;10.572;2023-10-19T00:37:32;99163.72;;;11.20;55.85
40490;BME280;26196;52.302;10.572;2023-10-19T00:41:32;99154.47;;;11.13;56.06
40490;BME280;26196;52.302;10.572;2023-10-19T00:45:34;99154.41;;;11.14;56.10
40490;BME280;26196;52.302;10.572;2023-10-19T00:49:39;99162.22;;;11.16;56.20
40490;BME280;26196;52.302;10.572;2023-10-19T00:53:40;99148.19;;;11.17;56.29
40490;BME280;26196;52.302;10.572;2023-10-19T00:57:41;99142.41;;;11.10;56.63
40490;BME280;26196;52.302;10.572;2023-10-19T01:01:43;99130.91;;;11.13;56.51
40490;BME280;26196;52.302;10.572;2023-10-19T01:05:45;99124.66;;;11.15;56.24
40490;BME280;26196;52.302;10.572;2023-10-19T01:09:49;99121.81;;;11.20;56.27
40490;BME280;26196;52.302;10.572;2023-10-19T01:13:53;99112.13;;;11.22;56.24
40490;BME280;26196;52.302;10.572;2023-10-19T01:17:54;99107.66;;;11.24;56.51
40490;BME280;26196;52.302;10.572;2023-10-19T01:21:57;99111.06;;;11.26;56.33
40490;BME280;26196;52.302;10.572;2023-10-19T01:25:59;99096.78;;;11.32;56.30
40490;BME280;26196;52.302;10.572;2023-10-19T01:30:00;99094.00;;;11.35;56.49
40490;BME280;26196;52.302;10.572;2023-10-19T01:34:02;99099.91;;;11.38;56.33
40490;BME280;26196;52.302;10.572;2023-10-19T01:38:05;99098.91;;;11.41;56.21
40490;BME280;26196;52.302;10.572;2023-10-19T01:42:06;99100.66;;;11.41;56.18
40490;BME280;26196;52.302;10.572;2023-10-19T01:46:09;99100.84;;;11.37;56.49
40490;BME280;26196;52.302;10.572;2023-10-19T01:50:12;99089.59;;;11.35;56.17
40490;BME280;26196;52.302;10.572;2023-10-19T01:54:23;99090.53;;;11.34;56.15
40490;BME280;26196;52.302;10.572;2023-10-19T01:58:25;99082.34;;;11.41;56.33
40490;BME280;26196;52.302;10.572;2023-10-19T02:02:25;99071.84;;;11.41;56.23
40490;BME280;26196;52.302;10.572;2023-10-19T02:06:26;99057.75;;;11.43;56.25
40490;BME280;26196;52.302;10.572;2023-10-19T02:10:46;99039.25;;;11.46;56.26
40490;BME280;26196;52.302;10.572;2023-10-19T02:14:47;99039.34;;;11.45;56.30
40490;BME280;26196;52.302;10.572;2023-10-19T02:18:48;99025.28;;;11.46;56.46
40490;BME280;26196;52.302;10.572;2023-10-19T02:22:48;99014.81;;;11.46;56.13
40490;BME280;26196;52.302;10.572;2023-10-19T02:26:49;99012.63;;;11.38;56.35
40490;BME280;26196;52.302;10.572;2023-10-19T02:30:51;98994.34;;;11.36;56.50
40490;BME280;26196;52.302;10.572;2023-10-19T02:34:51;98989.09;;;11.36;56.46
40490;BME280;26196;52.302;10.572;2023-10-19T02:38:51;98988.19;;;11.37;56.61
40490;BME280;26196;52.302;10.572;2023-10-19T02:42:52;98971.78;;;11.34;56.31
40490;BME280;26196;52.302;10.572;2023-10-19T02:46:54;98955.22;;;11.33;56.34
40490;BME280;26196;52.302;10.572;2023-10-19T02:51:15;98953.31;;;11.37;56.72
40490;BME280;26196;52.302;10.572;2023-10-19T02:55:15;98953.56;;;11.32;56.80
40490;BME280;26196;52.302;10.572;2023-10-19T02:59:20;98950.94;;;11.32;56.68
40490;BME280;26196;52.302;10.572;2023-10-19T03:03:24;98941.22;;;11.34;56.59
40490;BME280;26196;52.302;10.572;2023-10-19T03:07:24;98935.09;;;11.34;56.63
40490;BME280;26196;52.302;10.572;2023-10-19T03:11:25;98931.81;;;11.30;57.18
40490;BME280;26196;52.302;10.572;2023-10-19T03:15:25;98926.59;;;11.30;57.04
40490;BME280;26196;52.302;10.572;2023-10-19T03:19:27;98921.59;;;11.26;57.00
40490;BME280;26196;52.302;10.572;2023-10-19T03:23:27;98926.94;;;11.24;56.94
40490;BME280;26196;52.302;10.572;2023-10-19T03:27:28;98930.31;;;11.26;56.88
40490;BME280;26196;52.302;10.572;2023-10-19T03:31:29;98927.69;;;11.26;57.12
40490;BME280;26196;52.302;10.572;2023-10-19T03:35:29;98920.84;;;11.24;57.06
40490;BME280;26196;52.302;10.572;2023-10-19T03:39:30;98917.53;;;11.20;57.10
40490;BME280;26196;52.302;10.572;2023-10-19T03:43:30;98914.00;;;11.21;56.82
40490;BME280;26196;52.302;10.572;2023-10-19T03:47:30;98914.00;;;11.21;57.03
40490;BME280;26196;52.302;10.572;2023-10-19T03:51:34;98917.38;;;11.23;56.90
40490;BME280;26196;52.302;10.572;2023-10-19T03:55:55;98917.38;;;11.23;57.34
40490;BME280;26196;52.302;10.572;2023-10-19T03:59:55;98913.16;;;11.21;57.27
40490;BME280;26196;52.302;10.572;2023-10-19T04:03:59;98900.75;;;11.24;57.00
40490;BME280;26196;52.302;10.572;2023-10-19T04:08:01;98897.19;;;11.25;57.00
40490;BME280;26196;52.302;10.572;2023-10-19T04:12:06;98886.81;;;11.24;57.14
40490;BME280;26196;52.302;10.572;2023-10-19T04:16:07;98882.59;;;11.21;56.83
40490;BME280;26196;52.302;10.572;2023-10-19T04:20:10;98887.91;;;11.20;57.48
40490;BME280;26196;52.302;10.572;2023-10-19T04:24:19;98879.22;;;11.19;57.56
40490;BME280;26196;52.302;10.572;2023-10-19T04:28:19;98879.38;;;11.16;57.61
40490;BME280;26196;52.302;10.572;2023-10-19T04:32:30;98873.38;;;11.14;57.29
40490;BME280;26196;52.302;10.572;2023-10-19T04:36:32;98859.28;;;11.16;57.63
40490;BME280;26196;52.302;10.572;2023-10-19T04:40:33;98861.13;;;11.14;57.85
40490;BME280;26196;52.302;10.572;2023-10-19T04:44:34;98872.25;;;11.18;57.63
40490;BME280;26196;52.302;10.572;2023-10-19T04:48:34;98875.75;;;11.19;57.63
40490;BME280;26196;52.302;10.572;2023-10-19T04:52:35;98860.09;;;11.17;57.24
40490;BME280;26196;52.302;10.572;2023-10-19T04:56:36;98852.19;;;11.19;57.56
40490;BME280;26196;52.302;10.572;2023-10-19T05:00:36;98849.63;;;11.17;57.83
40490;BME280;26196;52.302;10.572;2023-10-19T05:04:37;98848.09;;;11.13;57.62
40490;BME280;26196;52.302;10.572;2023-10-19T05:08:39;98847.19;;;11.14;57.59
40490;BME280;26196;52.302;10.572;2023-10-19T05:12:39;98846.50;;;11.10;57.84
40490;BME280;26196;52.302;10.572;2023-10-19T05:16:40;98848.78;;;11.16;57.87
40490;BME280;26196;52.302;10.572;2023-10-19T05:20:40;98841.13;;;11.13;57.51
40490;BME280;26196;52.302;10.572;2023-10-19T05:24:40;98836.91;;;11.11;57.95
40490;BME280;26196;52.302;10.572;2023-10-19T05:28:41;98841.19;;;11.12;57.91
40490;BME280;26196;52.302;10.572;2023-10-19T05:32:42;98849.81;;;11.14;57.86
40490;BME280;26196;52.302;10.572;2023-10-19T05:36:43;98844.75;;;11.11;57.69
40490;BME280;26196;52.302;10.572;2023-10-19T05:40:46;98841.25;;;11.10;57.79
40490;BME280;26196;52.302;10.572;2023-10-19T05:44:47;98843.41;;;11.04;58.24
40490;BME280;26196;52.302;10.572;2023-10-19T05:48:48;98843.41;;;11.04;58.04
40490;BME280;26196;52.302;10.572;2023-10-19T05:52:49;98846.97;;;11.03;57.92
40490;BME280;26196;52.302;10.572;2023-10-19T05:56:50;98839.94;;;11.03;58.26
40490;BME280;26196;52.302;10.572;2023-10-19T06:00:50;98847.78;;;11.03;58.16
40490;BME280;26196;52.302;10.572;2023-10-19T06:04:52;98851.06;;;11.07;58.03
40490;BME280;26196;52.302;10.572;2023-10-19T06:08:52;98853.94;;;11.02;58.14
40490;BME280;26196;52.302;10.572;2023-10-19T06:12:53;98845.25;;;11.02;58.07
40490;BME280;26196;52.302;10.572;2023-10-19T06:16:54;98850.31;;;11.05;58.20
40490;BME280;26196;52.302;10.572;2023-10-19T06:20:54;98848.81;;;11.01;58.29
40490;BME280;26196;52.302;10.572;2023-10-19T06:24:55;98845.50;;;10.97;58.31
40490;BME280;26196;52.302;10.572;2023-10-19T06:28:55;98845.44;;;10.99;58.09
40490;BME280;26196;52.302;10.572;2023-10-19T06:33:02;98845.44;;;10.99;58.32
40490;BME280;26196;52.302;10.572;2023-10-19T06:37:02;98854.38;;;10.94;58.37
40490;BME280;26196;52.302;10.572;2023-10-19T06:41:10;98860.28;;;10.98;58.43
40490;BME280;26196;52.302;10.572;2023-10-19T06:45:11;98865.44;;;11.00;58.43
40490;BME280;26196;52.302;10.572;2023-10-19T06:49:14;98864.69;;;10.98;58.25
40490;BME280;26196;52.302;10.572;2023-10-19T06:53:15;98861.06;;;11.00;58.27
40490;BME280;26196;52.302;10.572;2023-10-19T06:57:15;98852.34;;;11.00;58.17
40490;BME280;26196;52.302;10.572;2023-10-19T07:01:16;98840.13;;;11.00;58.23
40490;BME280;26196;52.302;10.572;2023-10-19T07:05:18;98839.25;;;11.00;58.37
40490;BME280;26196;52.302;10.572;2023-10-19T07:09:22;98832.94;;;11.04;58.36
40490;BME280;26196;52.302;10.572;2023-10-19T07:13:25;98835.44;;;11.05;58.30
40490;BME280;26196;52.302;10.572;2023-10-19T07:17:25;98828.78;;;11.00;58.52
40490;BME280;26196;52.302;10.572;2023-10-19T07:21:25;98833.28;;;10.98;58.56
40490;BME280;26196;52.302;10.572;2023-10-19T07:25:25;98826.34;;;10.97;58.69
40490;BME280;26196;52.302;10.572;2023-10-19T07:29:25;98829.13;;;10.93;58.66
40490;BME280;26196;52.302;10.572;2023-10-19T07:33:26;98821.03;;;10.98;58.54
40490;BME280;26196;52.302;10.572;2023-10-19T07:37:26;98828.03;;;10.98;58.63
40490;BME280;26196;52.302;10.572;2023-10-19T07:41:28;98828.88;;;10.98;58.41
40490;BME280;26196;52.302;10.572;2023-10-19T07:45:34;98823.81;;;10.95;58.63
40490;BME280;26196;52.302;10.572;2023-10-19T07:49:36;98819.31;;;10.97;58.65
40490;BME280;26196;52.302;10.572;2023-10-19T07:53:39;98817.56;;;10.98;58.97
40490;BME280;26196;52.302;10.572;2023-10-19T07:57:40;98821.03;;;10.98;58.94
40490;BME280;26196;52.302;10.572;2023-10-19T08:01:44;98822.81;;;10.98;58.69
40490;BME280;26196;52.302;10.572;2023-10-19T08:05:44;98822.09;;;10.94;59.23
40490;BME280;26196;52.302;10.572;2023-10-19T08:09:44;98818.66;;;10.93;58.91
40490;BME280;26196;52.302;10.572;2023-10-19T08:13:45;98814.19;;;10.95;59.04
40490;BME280;26196;52.302;10.572;2023-10-19T08:17:46;98824.56;;;10.97;58.89
40490;BME280;26196;52.302;10.572;2023-10-19T08:21:47;98819.31;;;10.97;59.41
40490;BME280;26196;52.302;10.572;2023-10-19T08:25:47;98811.63;;;10.94;59.29
40490;BME280;26196;52.302;10.572;2023-10-19T08:29:47;98818.66;;;10.93;59.14
40490;BME280;26196;52.302;10.572;2023-10-19T08:33:48;98824.66;;;10.95;59.03
40490;BME280;26196;52.302;10.572;2023-10-19T08:37:49;98823.47;;;11.01;59.09
40490;BME280;26196;52.302;10.572;2023-10-19T08:41:49;98816.69;;;10.97;59.38
40490;BME280;26196;52.302;10.572;2023-10-19T08:45:53;98819.06;;;11.02;59.07
40490;BME280;26196;52.302;10.572;2023-10-19T08:49:53;98829.53;;;11.02;59.36
40490;BME280;26196;52.302;10.572;2023-10-19T08:53:54;98831.31;;;11.01;59.55
40490;BME280;26196;52.302;10.572;2023-10-19T08:57:57;98819.25;;;10.99;59.23
40490;BME280;26196;52.302;10.572;2023-10-19T09:02:01;98813.00;;;11.01;59.71
40490;BME280;26196;52.302;10.572;2023-10-19T09:06:02;98805.22;;;11.00;59.40
40490;BME280;26196;52.302;10.572;2023-10-19T09:10:05;98798.22;;;11.00;59.32
40490;BME280;26196;52.302;10.572;2023-10-19T09:14:05;98793.72;;;11.02;59.45
40490;BME280;26196;52.302;10.572;2023-10-19T09:18:27;98795.44;;;11.03;59.49
40490;BME280;26196;52.302;10.572;2023-10-19T09:22:34;98800.66;;;11.03;59.39
40490;BME280;26196;52.302;10.572;2023-10-19T09:26:36;98799.84;;;11.03;59.57
40490;BME280;26196;52.302;10.572;2023-10-19T09:30:37;98799.91;;;11.01;59.52
40490;BME280;26196;52.302;10.572;2023-10-19T09:34:42;98806.75;;;11.04;59.60
40490;BME280;26196;52.302;10.572;2023-10-19T09:38:50;98802.34;;;11.04;59.46
40490;BME280;26196;52.302;10.572;2023-10-19T09:42:52;98797.22;;;11.03;59.31
40490;BME280;26196;52.302;10.572;2023-10-19T09:46:53;98802.28;;;11.06;59.79
40490;BME280;26196;52.302;10.572;2023-10-19T09:50:56;98800.38;;;11.08;59.79
40490;BME280;26196;52.302;10.572;2023-10-19T09:59:11;98796.69;;;11.12;59.81
40490;BME280;26196;52.302;10.572;2023-10-19T10:07:32;98794.25;;;11.09;59.39
40490;BME280;26196;52.302;10.572;2023-10-19T10:11:33;98784.53;;;11.11;60.06
40490;BME280;26196;52.302;10.572;2023-10-19T10:15:40;98786.19;;;11.12;60.04
40490;BME280;26196;52.302;10.572;2023-10-19T10:19:40;98776.66;;;11.11;60.09
40490;BME280;26196;52.302;10.572;2023-10-19T10:23:53;98776.75;;;11.09;60.38
40490;BME280;26196;52.302;10.572;2023-10-19T10:27:54;98781.03;;;11.10;60.33
40490;BME280;26196;52.302;10.572;2023-10-19T10:31:55;98775.81;;;11.10;60.77
40490;BME280;26196;52.302;10.572;2023-10-19T10:35:55;98767.88;;;11.12;60.76
40490;BME280;26196;52.302;10.572;2023-10-19T10:39:58;98770.56;;;11.10;60.76
40490;BME280;26196;52.302;10.572;2023-10-19T10:43:59;98767.94;;;11.10;60.73
40490;BME280;26196;52.302;10.572;2023-10-19T10:47:59;98766.84;;;11.14;60.68
40490;BME280;26196;52.302;10.572;2023-10-19T10:52:01;98762.47;;;11.15;60.73
40490;BME280;26196;52.302;10.572;2023-10-19T10:56:01;98763.28;;;11.15;60.46
40490;BME280;26196;52.302;10.572;2023-10-19T11:00:08;98739.66;;;11.17;60.47
40490;BME280;26196;52.302;10.572;2023-10-19T11:04:18;98724.78;;;11.17;60.80
40490;BME280;26196;52.302;10.572;2023-10-19T11:08:19;98714.28;;;11.17;61.12
40490;BME280;26196;52.302;10.572;2023-10-19T11:12:23;98719.53;;;11.17;60.87
40490;BME280;26196;52.302;10.572;2023-10-19T11:16:24;98736.09;;;11.18;60.96
40490;BME280;26196;52.302;10.572;2023-10-19T11:20:24;98736.09;;;11.18;61.15
40490;BME280;26196;52.302;10.572;2023-10-19T11:24:25;98737.78;;;11.19;60.54
40490;BME280;26196;52.302;10.572;2023-10-19T11:28:26;98747.31;;;11.20;61.01
40490;BME280;26196;52.302;10.572;2023-10-19T11:32:35;98734.16;;;11.22;60.65
40490;BME280;26196;52.302;10.572;2023-10-19T11:36:35;98731.44;;;11.23;61.06
40490;BME280;26196;52.302;10.572;2023-10-19T11:40:36;98727.91;;;11.24;60.93
40490;BME280;26196;52.302;10.572;2023-10-19T11:44:37;98712.94;;;11.26;60.90
40490;BME280;26196;52.302;10.572;2023-10-19T11:48:37;98704.13;;;11.27;60.77
40490;BME280;26196;52.302;10.572;2023-10-19T11:52:39;98705.09;;;11.26;61.05
40490;BME280;26196;52.302;10.572;2023-10-19T11:56:40;98718.91;;;11.28;61.48
40490;BME280;26196;52.302;10.572;2023-10-19T12:00:40;98717.22;;;11.27;61.39
40490;BME280;26196;52.302;10.572;2023-10-19T12:04:43;98725.09;;;11.27;61.64
40490;BME280;26196;52.302;10.572;2023-10-19T12:08:43;98724.25;;;11.27;61.20
40490;BME280;26196;52.302;10.572;2023-10-19T12:12:44;98737.25;;;11.28;61.50
40490;BME280;26196;52.302;10.572;2023-10-19T12:16:44;98725.75;;;11.31;61.35
40490;BME280;26196;52.302;10.572;2023-10-19T12:20:45;98723.03;;;11.32;61.60
40490;BME280;26196;52.302;10.572;2023-10-19T12:24:45;98735.38;;;11.30;61.47
40490;BME280;26196;52.302;10.572;2023-10-19T12:28:46;98730.91;;;11.32;61.41
40490;BME280;26196;52.302;10.572;2023-10-19T12:32:48;98728.28;;;11.32;61.73
40490;BME280;26196;52.302;10.572;2023-10-19T12:36:51;98728.19;;;11.34;61.59
40490;BME280;26196;52.302;10.572;2023-10-19T12:40:52;98720.25;;;11.35;61.81
40490;BME280;26196;52.302;10.572;2023-10-19T12:44:52;98717.81;;;11.32;61.70
40490;BME280;26196;52.302;10.572;2023-10-19T12:48:52;98715.94;;;11.34;62.27
40490;BME280;26196;52.302;10.572;2023-10-19T12:52:56;98710.59;;;11.36;61.96
40490;BME280;26196;52.302;10.572;2023-10-19T12:56:56;98714.25;;;11.33;61.88
40490;BME280;26196;52.302;10.572;2023-10-19T13:00:56;98708.81;;;11.36;61.47
40490;BME280;26196;52.302;10.572;2023-10-19T13:04:58;98696.66;;;11.35;61.50
40490;BME280;26196;52.302;10.572;2023-10-19T13:08:59;98692.25;;;11.36;61.72
40490;BME280;26196;52.302;10.572;2023-10-19T13:13:00;98699.09;;;11.38;61.83
40490;BME280;26196;52.302;10.572;2023-10-19T13:17:03;98695.63;;;11.38;61.76
40490;BME280;26196;52.302;10.572;2023-10-19T13:21:03;98690.41;;;11.38;62.13
40490;BME280;26196;52.302;10.572;2023-10-19T13:25:09;98681.59;;;11.39;61.51
40490;BME280;26196;52.302;10.572;2023-10-19T13:29:13;98675.53;;;11.38;61.38
40490;BME280;26196;52.302;10.572;2023-10-19T13:33:15;98675.44;;;11.40;61.69
40490;BME280;26196;52.302;10.572;2023-10-19T13:37:15;98677.94;;;11.42;62.03
40490;BME280;26196;52.302;10.572;2023-10-19T13:41:15;98680.69;;;11.40;61.59
40490;BME280;26196;52.302;10.572;2023-10-19T13:45:17;98693.78;;;11.40;62.38
40490;BME280;26196;52.302;10.572;2023-10-19T13:49:18;98699.03;;;11.40;61.53
40490;BME280;26196;52.302;10.572;2023-10-19T13:53:18;98688.44;;;11.42;61.58
40490;BME280;26196;52.302;10.572;2023-10-19T13:57:20;98695.38;;;11.43;61.59
40490;BME280;26196;52.302;10.572;2023-10-19T14:01:21;98693.66;;;11.42;61.79
40490;BME280;26196;52.302;10.572;2023-10-19T14:05:24;98687.41;;;11.44;61.69
40490;BME280;26196;52.302;10.572;2023-10-19T14:09:24;98679.66;;;11.43;61.51
40490;BME280;26196;52.302;10.572;2023-10-19T14:13:26;98677.03;;;11.43;61.62
40490;BME280;26196;52.302;10.572;2023-10-19T14:17:26;98683.94;;;11.44;61.76
40490;BME280;26196;52.302;10.572;2023-10-19T14:21:26;98685.66;;;11.45;61.88
40490;BME280;26196;52.302;10.572;2023-10-19T14:25:28;98698.81;;;11.43;61.21
40490;BME280;26196;52.302;10.572;2023-10-19T14:29:28;98682.28;;;11.43;61.81
40490;BME280;26196;52.302;10.572;2023-10-19T14:33:30;98676.00;;;11.45;61.26
40490;BME280;26196;52.302;10.572;2023-10-19T14:37:30;98682.84;;;11.48;61.28
40490;BME280;26196;52.302;10.572;2023-10-19T14:41:30;98685.47;;;11.48;61.55
40490;BME280;26196;52.302;10.572;2023-10-19T14:45:30;98682.09;;;11.46;61.37
40490;BME280;26196;52.302;10.572;2023-10-19T14:49:32;98679.38;;;11.47;61.50
40490;BME280;26196;52.302;10.572;2023-10-19T14:53:33;98681.13;;;11.47;61.45
40490;BME280;26196;52.302;10.572;2023-10-19T14:57:33;98670.56;;;11.48;61.27
40490;BME280;26196;52.302;10.572;2023-10-19T15:01:33;98676.56;;;11.50;61.32
40490;BME280;26196;52.302;10.572;2023-10-19T15:05:34;98671.34;;;11.50;61.26
40490;BME280;26196;52.302;10.572;2023-10-19T15:09:35;98670.31;;;11.53;61.15
40490;BME280;26196;52.302;10.572;2023-10-19T15:13:36;98662.44;;;11.53;61.23
40490;BME280;26196;52.302;10.572;2023-10-19T15:17:37;98677.41;;;11.51;61.33
40490;BME280;26196;52.302;10.572;2023-10-19T15:21:38;98674.78;;;11.51;61.62
40490;BME280;26196;52.302;10.572;2023-10-19T15:25:38;98669.56;;;11.51;61.38
40490;BME280;26196;52.302;10.572;2023-10-19T15:29:40;98666.09;;;11.50;61.26
40490;BME280;26196;52.302;10.572;2023-10-19T15:33:40;98671.41;;;11.49;61.23
40490;BME280;26196;52.302;10.572;2023-10-19T15:37:40;98665.34;;;11.48;61.27
40490;BME280;26196;52.302;10.572;2023-10-19T15:41:41;98660.03;;;11.50;61.41
40490;BME280;26196;52.302;10.572;2023-10-19T15:45:41;98653.84;;;11.51;61.25
40490;BME280;26196;52.302;10.572;2023-10-19T15:49:48;98647.75;;;11.50;61.34
40490;BME280;26196;52.302;10.572;2023-10-19T15:53:48;98638.19;;;11.49;61.39
40490;BME280;26196;52.302;10.572;2023-10-19T15:57:48;98640.16;;;11.46;61.54
40490;BME280;26196;52.302;10.572;2023-10-19T16:01:52;98640.16;;;11.46;61.61
40490;BME280;26196;52.302;10.572;2023-10-19T16:05:52;98637.63;;;11.44;61.39
40490;BME280;26196;52.302;10.572;2023-10-19T16:09:52;98633.25;;;11.45;61.30
40490;BME280;26196;52.302;10.572;2023-10-19T16:13:52;98627.00;;;11.47;61.18
40490;BME280;26196;52.302;10.572;2023-10-19T16:17:53;98624.53;;;11.44;61.65
40490;BME280;26196;52.302;10.572;2023-10-19T16:21:54;98631.34;;;11.47;61.25
40490;BME280;26196;52.302;10.572;2023-10-19T16:26:00;98622.59;;;11.48;61.27
40490;BME280;26196;52.302;10.572;2023-10-19T16:30:00;98617.53;;;11.45;61.43
40490;BME280;26196;52.302;10.572;2023-10-19T16:34:01;98630.53;;;11.46;61.43
40490;BME280;26196;52.302;10.572;2023-10-19T16:38:02;98617.53;;;11.45;61.54
40490;BME280;26196;52.302;10.572;2023-10-19T16:42:02;98632.22;;;11.47;61.68
40490;BME280;26196;52.302;10.572;2023-10-19T16:46:03;98624.53;;;11.44;61.08
40490;BME280;26196;52.302;10.572;2023-10-19T16:50:04;98627.25;;;11.43;61.48
40490;BME280;26196;52.302;10.572;2023-10-19T16:54:11;98617.34;;;11.48;61.26
40490;BME280;26196;52.302;10.572;2023-10-19T16:58:12;98623.81;;;11.42;61.34
40490;BME280;26196;52.302;10.572;2023-10-19T17:02:12;98627.16;;;11.44;61.54
40490;BME280;26196;52.302;10.572;2023-10-19T17:06:13;98628.75;;;11.47;61.10
40490;BME280;26196;52.302;10.572;2023-10-19T17:10:13;98628.09;;;11.43;61.13
40490;BME280;26196;52.302;10.572;2023-10-19T17:14:14;98630.53;;;11.46;61.29
40490;BME280;26196;52.302;10.572;2023-10-19T17:18:15;98628.03;;;11.45;61.11
40490;BME280;26196;52.302;10.572;2023-10-19T17:22:16;98627.06;;;11.46;61.26
40490;BME280;26196;52.302;10.572;2023-10-19T17:26:16;98622.78;;;11.45;61.22
40490;BME280;26196;52.302;10.572;2023-10-19T17:30:16;98624.53;;;11.44;61.28
40490;BME280;26196;52.302;10.572;2023-10-19T17:34:16;98621.75;;;11.47;60.85
40490;BME280;26196;52.302;10.572;2023-10-19T17:38:17;98626.13;;;11.47;61.22
40490;BME280;26196;52.302;10.572;2023-10-19T17:42:18;98626.13;;;11.47;61.07
40490;BME280;26196;52.302;10.572;2023-10-19T17:46:18;98627.06;;;11.46;61.03
40490;BME280;26196;52.302;10.572;2023-10-19T17:50:18;98620.03;;;11.46;60.57
40490;BME280;26196;52.302;10.572;2023-10-19T17:54:19;98620.03;;;11.46;61.15
40490;BME280;26196;52.302;10.572;2023-10-19T17:58:21;98606.03;;;11.47;60.73
40490;BME280;26196;52.302;10.572;2023-10-19T18:02:22;98599.91;;;11.47;61.09
40490;BME280;26196;52.302;10.572;2023-10-19T18:06:22;98602.53;;;11.47;60.57
40490;BME280;26196;52.302;10.572;2023-10-19T18:10:22;98595.44;;;11.49;61.23
40490;BME280;26196;52.302;10.572;2023-10-19T18:14:28;98585.06;;;11.47;60.67
40490;BME280;26196;52.302;10.572;2023-10-19T18:18:28;98585.22;;;11.44;61.28
40490;BME280;26196;52.302;10.572;2023-10-19T18:22:29;98581.69;;;11.45;61.06
40490;BME280;26196;52.302;10.572;2023-10-19T18:26:30;98578.13;;;11.46;60.94
40490;BME280;26196;52.302;10.572;2023-10-19T18:30:30;98585.22;;;11.44;60.88
40490;BME280;26196;52.302;10.572;2023-10-19T18:34:30;98579.84;;;11.47;61.17
40490;BME280;26196;52.302;10.572;2023-10-19T18:38:33;98573.72;;;11.47;60.66
40490;BME280;26196;52.302;10.572;2023-10-19T18:42:37;98573.91;;;11.44;61.07
40490;BME280;26196;52.302;10.572;2023-10-19T18:46:37;98576.66;;;11.42;60.69
40490;BME280;26196;52.302;10.572;2023-10-19T18:50:38;98586.09;;;11.45;60.87
40490;BME280;26196;52.302;10.572;2023-10-19T18:54:38;98584.22;;;11.47;60.70
40490;BME280;26196;52.302;10.572;2023-10-19T18:58:39;98590.41;;;11.46;60.44
40490;BME280;26196;52.302;10.572;2023-10-19T19:02:39;98584.97;;;11.49;60.51
40490;BME280;26196;52.302;10.572;2023-10-19T19:06:39;98588.72;;;11.45;60.91
40490;BME280;26196;52.302;10.572;2023-10-19T19:10:40;98593.22;;;11.43;61.31
40490;BME280;26196;52.302;10.572;2023-10-19T19:14:41;98591.34;;;11.45;60.91
40490;BME280;26196;52.302;10.572;2023-10-19T19:18:41;98597.50;;;11.44;60.82
40490;BME280;26196;52.302;10.572;2023-10-19T19:22:42;98600.88;;;11.46;60.87
40490;BME280;26196;52.302;10.572;2023-10-19T19:26:42;98607.13;;;11.43;60.85
40490;BME280;26196;52.302;10.572;2023-10-19T19:30:42;98601.06;;;11.43;61.12
40490;BME280;26196;52.302;10.572;2023-10-19T19:34:43;98598.34;;;11.44;60.68
40490;BME280;26196;52.302;10.572;2023-10-19T19:38:46;98598.25;;;11.46;60.84
40490;BME280;26196;52.302;10.572;2023-10-19T19:42:46;98579.16;;;11.44;60.89
40490;BME280;26196;52.302;10.572;2023-10-19T19:46:46;98577.28;;;11.46;60.78
40490;BME280;26196;52.302;10.572;2023-10-19T19:50:46;98574.69;;;11.46;60.93
40490;BME280;26196;52.302;10.572;2023-10-19T19:54:47;98572.81;;;11.48;60.76
40490;BME280;26196;52.302;10.572;2023-10-19T19:58:47;98571.03;;;11.48;60.72
40490;BME280;26196;52.302;10.572;2023-10-19T20:02:47;98571.84;;;11.49;60.96
40490;BME280;26196;52.302;10.572;2023-10-19T20:06:48;98567.56;;;11.48;60.72
40490;BME280;26196;52.302;10.572;2023-10-19T20:10:51;98554.47;;;11.48;60.82
40490;BME280;26196;52.302;10.572;2023-10-19T20:14:52;98560.53;;;11.48;61.03
40490;BME280;26196;52.302;10.572;2023-10-19T20:18:53;98549.03;;;11.51;60.88
40490;BME280;26196;52.302;10.572;2023-10-19T20:22:53;98559.59;;;11.49;60.90
40490;BME280;26196;52.302;10.572;2023-10-19T20:26:57;98550.91;;;11.49;60.74
40490;BME280;26196;52.302;10.572;2023-10-19T20:30:58;98551.00;;;11.47;60.59
40490;BME280;26196;52.302;10.572;2023-10-19T20:34:59;98558.00;;;11.47;60.67
40490;BME280;26196;52.302;10.572;2023-10-19T20:38:59;98562.22;;;11.49;60.65
40490;BME280;26196;52.302;10.572;2023-10-19T20:43:01;98563.91;;;11.50;60.75
40490;BME280;26196;52.302;10.572;2023-10-19T20:47:04;98557.94;;;11.48;60.42
40490;BME280;26196;52.302;10.572;2023-10-19T20:51:12;98548.28;;;11.49;60.88
40490;BME280;26196;52.302;10.572;2023-10-19T20:55:14;98559.72;;;11.48;60.71
40490;BME280;26196;52.302;10.572;2023-10-19T20:59:14;98555.38;;;11.47;60.71
40490;BME280;26196;52.302;10.572;2023-10-19T21:03:14;98555.38;;;11.47;60.33
40490;BME280;26196;52.302;10.572;2023-10-19T21:07:15;98558.75;;;11.49;60.67
40490;BME280;26196;52.302;10.572;2023-10-19T21:11:18;98551.75;;;11.49;60.49